sensor_id;sensor_type;location;lat;lon;timestamp;P1;durP1;ratioP1;P2;durP2;ratioP2
9264;SDS011;4669;49.594;10.958;2022-07-21T00:01:01;6.53;;;4.60;;
9264;SDS011;4669;49.594;10.958;2022-07-21T00:06:04;5.47;;;4.30;;
9264;SDS011;4669;49.594;10.958;2022-07-21T00:11:08;8.50;;;4.97;;
9264;SDS011;4669;49.594;10.958;2022-07-21T00:16:10;9.27;;;5.18;;
9264;SDS011;4669;49.594;10.958;2022-07-21T00:21:12;7.93;;;4.85;;
9264;SDS011;4669;49.594;10.958;2022-07-21T00:26:15;5.93;;;4.88;;
9264;SDS011;4669;49.594;10.958;2022-07-21T00:31:17;4.97;;;4.40;;
9264;SDS011;4669;49.594;10.958;2022-07-21T00:36:19;6.00;;;4.68;;
9264;SDS011;4669;49.594;10.958;2022-07-21T00:41:23;5.32;;;4.30;;
9264;SDS011;4669;49.594;10.958;2022-07-21T00:46:25;5.18;;;4.22;;
9264;SDS011;4669;49.594;10.958;2022-07-21T00:51:28;4.13;;;3.42;;
9264;SDS011;4669;49.594;10.958;2022-07-21T00:56:31;3.60;;;3.30;;
9264;SDS011;4669;49.594;10.958;2022-07-21T01:01:33;4.72;;;3.85;;
9264;SDS011;4669;49.594;10.958;2022-07-21T01:06:35;3.40;;;3.10;;
9264;SDS011;4669;49.594;10.958;2022-07-21T01:11:39;7.70;;;4.43;;
9264;SDS011;4669;49.594;10.958;2022-07-21T01:16:42;4.38;;;3.40;;
9264;SDS011;4669;49.594;10.958;2022-07-21T01:21:46;4.22;;;3.72;;
9264;SDS011;4669;49.594;10.958;2022-07-21T01:26:50;6.45;;;4.43;;
9264;SDS011;4669;49.594;10.958;2022-07-21T01:31:53;5.65;;;4.30;;
9264;SDS011;4669;49.594;10.958;2022-07-21T01:36:57;4.55;;;4.15;;
9264;SDS011;4669;49.594;10.958;2022-07-21T01:42:00;4.78;;;4.25;;
9264;SDS011;4669;49.594;10.958;2022-07-21T01:47:02;4.72;;;3.90;;
9264;SDS011;4669;49.594;10.958;2022-07-21T01:52:06;7.28;;;5.55;;
9264;SDS011;4669;49.594;10.958;2022-07-21T01:57:08;4.88;;;4.38;;
9264;SDS011;4669;49.594;10.958;2022-07-21T02:02:10;7.50;;;4.70;;
9264;SDS011;4669;49.594;10.958;2022-07-21T02:07:14;7.88;;;4.30;;
9264;SDS011;4669;49.594;10.958;2022-07-21T02:12:16;6.47;;;4.35;;
9264;SDS011;4669;49.594;10.958;2022-07-21T02:17:18;6.03;;;4.75;;
9264;SDS011;4669;49.594;10.958;2022-07-21T02:22:22;6.75;;;4.63;;
9264;SDS011;4669;49.594;10.958;2022-07-21T02:27:24;5.88;;;5.20;;
9264;SDS011;4669;49.594;10.958;2022-07-21T02:32:26;8.85;;;5.45;;
9264;SDS011;4669;49.594;10.958;2022-07-21T02:37:29;6.55;;;5.18;;
9264;SDS011;4669;49.594;10.958;2022-07-21T02:42:31;7.18;;;5.18;;
9264;SDS011;4669;49.594;10.958;2022-07-21T02:47:46;7.93;;;5.75;;
9264;SDS011;4669;49.594;10.958;2022-07-21T02:52:50;6.13;;;5.32;;
9264;SDS011;4669;49.594;10.958;2022-07-21T02:58:02;5.93;;;5.38;;
9264;SDS011;4669;49.594;10.958;2022-07-21T03:03:06;6.10;;;5.50;;
9264;SDS011;4669;49.594;10.958;2022-07-21T03:08:10;6.95;;;5.68;;
9264;SDS011;4669;49.594;10.958;2022-07-21T03:13:13;6.82;;;6.05;;
9264;SDS011;4669;49.594;10.958;2022-07-21T03:18:15;6.53;;;5.93;;
9264;SDS011;4669;49.594;10.958;2022-07-21T03:23:19;8.15;;;5.97;;
9264;SDS011;4669;49.594;10.958;2022-07-21T03:28:23;6.60;;;6.00;;
9264;SDS011;4669;49.594;10.958;2022-07-21T03:33:25;7.07;;;6.20;;
9264;SDS011;4669;49.594;10.958;2022-07-21T03:38:29;6.28;;;5.78;;
9264;SDS011;4669;49.594;10.958;2022-07-21T03:43:31;6.57;;;5.90;;
9264;SDS011;4669;49.594;10.958;2022-07-21T03:48:33;6.22;;;5.63;;
9264;SDS011;4669;49.594;10.958;2022-07-21T03:53:36;10.02;;;7.70;;
9264;SDS011;4669;49.594;10.958;2022-07-21T03:58:38;10.45;;;7.85;;
9264;SDS011;4669;49.594;10.958;2022-07-21T04:03:40;8.02;;;7.22;;
9264;SDS011;4669;49.594;10.958;2022-07-21T04:08:43;9.10;;;8.13;;
9264;SDS011;4669;49.594;10.958;2022-07-21T04:13:45;9.57;;;8.68;;
9264;SDS011;4669;49.594;10.958;2022-07-21T04:18:47;10.98;;;7.60;;
9264;SDS011;4669;49.594;10.958;2022-07-21T04:23:51;8.73;;;7.82;;
9264;SDS011;4669;49.594;10.958;2022-07-21T04:28:53;11.70;;;8.82;;
9264;SDS011;4669;49.594;10.958;2022-07-21T04:33:55;9.35;;;8.40;;
9264;SDS011;4669;49.594;10.958;2022-07-21T04:38:59;13.70;;;11.70;;
9264;SDS011;4669;49.594;10.958;2022-07-21T04:44:01;10.80;;;8.98;;
9264;SDS011;4669;49.594;10.958;2022-07-21T04:49:03;14.45;;;11.20;;
9264;SDS011;4669;49.594;10.958;2022-07-21T04:54:06;11.25;;;9.57;;
9264;SDS011;4669;49.594;10.958;2022-07-21T04:59:09;13.35;;;10.85;;
9264;SDS011;4669;49.594;10.958;2022-07-21T05:04:11;12.20;;;10.73;;
9264;SDS011;4669;49.594;10.958;2022-07-21T05:09:14;11.90;;;10.57;;
9264;SDS011;4669;49.594;10.958;2022-07-21T05:14:16;14.57;;;11.68;;
9264;SDS011;4669;49.594;10.958;2022-07-21T05:19:18;14.10;;;12.38;;
9264;SDS011;4669;49.594;10.958;2022-07-21T05:24:22;13.60;;;12.27;;
9264;SDS011;4669;49.594;10.958;2022-07-21T05:29:24;13.77;;;12.38;;
9264;SDS011;4669;49.594;10.958;2022-07-21T05:34:26;14.60;;;13.18;;
9264;SDS011;4669;49.594;10.958;2022-07-21T05:39:29;14.05;;;12.70;;
9264;SDS011;4669;49.594;10.958;2022-07-21T05:44:32;14.05;;;12.25;;
9264;SDS011;4669;49.594;10.958;2022-07-21T05:49:34;17.95;;;16.05;;
9264;SDS011;4669;49.594;10.958;2022-07-21T05:54:37;15.98;;;14.30;;
9264;SDS011;4669;49.594;10.958;2022-07-21T05:59:39;13.90;;;12.40;;
9264;SDS011;4669;49.594;10.958;2022-07-21T06:04:41;14.38;;;13.00;;
9264;SDS011;4669;49.594;10.958;2022-07-21T06:09:45;15.70;;;13.13;;
9264;SDS011;4669;49.594;10.958;2022-07-21T06:14:47;15.68;;;14.18;;
9264;SDS011;4669;49.594;10.958;2022-07-21T06:19:49;13.48;;;12.32;;
9264;SDS011;4669;49.594;10.958;2022-07-21T06:24:53;16.08;;;14.52;;
9264;SDS011;4669;49.594;10.958;2022-07-21T06:29:55;15.10;;;13.43;;
9264;SDS011;4669;49.594;10.958;2022-07-21T06:34:59;13.68;;;11.95;;
9264;SDS011;4669;49.594;10.958;2022-07-21T06:40:02;14.63;;;13.25;;
9264;SDS011;4669;49.594;10.958;2022-07-21T06:45:06;18.30;;;14.75;;
9264;SDS011;4669;49.594;10.958;2022-07-21T06:50:09;14.32;;;12.82;;
9264;SDS011;4669;49.594;10.958;2022-07-21T06:55:12;16.10;;;12.55;;
9264;SDS011;4669;49.594;10.958;2022-07-21T07:00:15;15.55;;;13.95;;
9264;SDS011;4669;49.594;10.958;2022-07-21T07:05:18;15.82;;;14.43;;
9264;SDS011;4669;49.594;10.958;2022-07-21T07:10:21;13.93;;;12.70;;
9264;SDS011;4669;49.594;10.958;2022-07-21T07:15:23;16.05;;;14.55;;
9264;SDS011;4669;49.594;10.958;2022-07-21T07:20:26;15.27;;;13.90;;
9264;SDS011;4669;49.594;10.958;2022-07-21T07:25:30;15.45;;;13.88;;
9264;SDS011;4669;49.594;10.958;2022-07-21T07:30:32;15.80;;;14.30;;
9264;SDS011;4669;49.594;10.958;2022-07-21T07:35:34;15.90;;;14.27;;
9264;SDS011;4669;49.594;10.958;2022-07-21T07:40:37;16.20;;;14.23;;
9264;SDS011;4669;49.594;10.958;2022-07-21T07:45:39;15.30;;;13.77;;
9264;SDS011;4669;49.594;10.958;2022-07-21T07:50:41;15.95;;;14.32;;
9264;SDS011;4669;49.594;10.958;2022-07-21T07:55:45;14.32;;;12.95;;
9264;SDS011;4669;49.594;10.958;2022-07-21T08:00:47;14.30;;;12.88;;
9264;SDS011;4669;49.594;10.958;2022-07-21T08:05:49;14.82;;;13.30;;
9264;SDS011;4669;49.594;10.958;2022-07-21T08:10:53;14.40;;;12.85;;
9264;SDS011;4669;49.594;10.958;2022-07-21T08:15:55;14.90;;;12.95;;
9264;SDS011;4669;49.594;10.958;2022-07-21T08:20:58;13.73;;;12.43;;
9264;SDS011;4669;49.594;10.958;2022-07-21T08:26:01;12.15;;;10.82;;
9264;SDS011;4669;49.594;10.958;2022-07-21T08:31:04;12.23;;;9.73;;
9264;SDS011;4669;49.594;10.958;2022-07-21T08:36:06;10.45;;;9.45;;
9264;SDS011;4669;49.594;10.958;2022-07-21T08:41:10;9.65;;;8.75;;
9264;SDS011;4669;49.594;10.958;2022-07-21T08:46:12;11.00;;;8.90;;
9264;SDS011;4669;49.594;10.958;2022-07-21T08:51:15;9.85;;;8.85;;
9264;SDS011;4669;49.594;10.958;2022-07-21T08:56:19;10.52;;;9.05;;
9264;SDS011;4669;49.594;10.958;2022-07-21T09:01:21;8.77;;;8.05;;
9264;SDS011;4669;49.594;10.958;2022-07-21T09:06:24;9.30;;;8.30;;
9264;SDS011;4669;49.594;10.958;2022-07-21T09:11:28;8.93;;;7.60;;
9264;SDS011;4669;49.594;10.958;2022-07-21T09:16:37;8.35;;;7.50;;
9264;SDS011;4669;49.594;10.958;2022-07-21T09:21:40;9.02;;;7.70;;
9264;SDS011;4669;49.594;10.958;2022-07-21T09:32:18;7.57;;;6.95;;
9264;SDS011;4669;49.594;10.958;2022-07-21T09:37:22;8.27;;;7.18;;
9264;SDS011;4669;49.594;10.958;2022-07-21T09:42:27;7.65;;;7.03;;
9264;SDS011;4669;49.594;10.958;2022-07-21T09:47:30;7.07;;;6.28;;
9264;SDS011;4669;49.594;10.958;2022-07-21T09:52:34;7.95;;;7.15;;
9264;SDS011;4669;49.594;10.958;2022-07-21T09:57:38;7.65;;;6.90;;
9264;SDS011;4669;49.594;10.958;2022-07-21T10:02:42;7.38;;;6.68;;
9264;SDS011;4669;49.594;10.958;2022-07-21T10:07:46;7.95;;;7.15;;
9264;SDS011;4669;49.594;10.958;2022-07-21T10:12:50;10.77;;;7.40;;
9264;SDS011;4669;49.594;10.958;2022-07-21T10:17:52;6.28;;;5.68;;
9264;SDS011;4669;49.594;10.958;2022-07-21T10:22:57;6.45;;;5.85;;
9264;SDS011;4669;49.594;10.958;2022-07-21T10:28:13;5.20;;;4.70;;
9264;SDS011;4669;49.594;10.958;2022-07-21T10:33:18;7.70;;;5.10;;
9264;SDS011;4669;49.594;10.958;2022-07-21T10:38:25;6.63;;;5.03;;
9264;SDS011;4669;49.594;10.958;2022-07-21T10:43:40;6.18;;;5.30;;
9264;SDS011;4669;49.594;10.958;2022-07-21T10:48:46;5.35;;;4.95;;
9264;SDS011;4669;49.594;10.958;2022-07-21T10:53:52;6.60;;;5.20;;
9264;SDS011;4669;49.594;10.958;2022-07-21T10:59:23;6.32;;;5.25;;
9264;SDS011;4669;49.594;10.958;2022-07-21T11:04:25;6.15;;;5.13;;
9264;SDS011;4669;49.594;10.958;2022-07-21T11:09:27;7.03;;;5.30;;
9264;SDS011;4669;49.594;10.958;2022-07-21T11:14:40;5.13;;;4.22;;
9264;SDS011;4669;49.594;10.958;2022-07-21T11:19:43;4.25;;;3.85;;
9264;SDS011;4669;49.594;10.958;2022-07-21T11:24:48;5.60;;;3.60;;
9264;SDS011;4669;49.594;10.958;2022-07-21T11:29:54;4.10;;;3.72;;
9264;SDS011;4669;49.594;10.958;2022-07-21T11:34:59;5.80;;;4.35;;
9264;SDS011;4669;49.594;10.958;2022-07-21T11:40:02;4.35;;;3.95;;
9264;SDS011;4669;49.594;10.958;2022-07-21T11:45:07;4.78;;;4.32;;
9264;SDS011;4669;49.594;10.958;2022-07-21T11:50:11;5.35;;;4.85;;
9264;SDS011;4669;49.594;10.958;2022-07-21T11:55:13;4.80;;;4.35;;
9264;SDS011;4669;49.594;10.958;2022-07-21T12:00:17;5.35;;;3.95;;
9264;SDS011;4669;49.594;10.958;2022-07-21T12:05:19;4.53;;;4.00;;
9264;SDS011;4669;49.594;10.958;2022-07-21T12:10:25;5.60;;;4.95;;
9264;SDS011;4669;49.594;10.958;2022-07-21T12:15:30;4.57;;;3.75;;
9264;SDS011;4669;49.594;10.958;2022-07-21T12:20:34;5.28;;;4.10;;
9264;SDS011;4669;49.594;10.958;2022-07-21T12:25:39;4.63;;;4.22;;
9264;SDS011;4669;49.594;10.958;2022-07-21T12:30:43;4.60;;;4.20;;
9264;SDS011;4669;49.594;10.958;2022-07-21T12:35:56;3.95;;;3.65;;
9264;SDS011;4669;49.594;10.958;2022-07-21T12:41:00;5.38;;;4.47;;
9264;SDS011;4669;49.594;10.958;2022-07-21T12:46:09;4.35;;;3.92;;
9264;SDS011;4669;49.594;10.958;2022-07-21T12:51:12;6.78;;;4.40;;
9264;SDS011;4669;49.594;10.958;2022-07-21T12:56:16;4.10;;;3.70;;
9264;SDS011;4669;49.594;10.958;2022-07-21T13:01:24;4.10;;;3.80;;
9264;SDS011;4669;49.594;10.958;2022-07-21T13:06:27;5.80;;;3.90;;
9264;SDS011;4669;49.594;10.958;2022-07-21T13:11:29;5.90;;;3.60;;
9264;SDS011;4669;49.594;10.958;2022-07-21T13:16:33;5.47;;;4.97;;
9264;SDS011;4669;49.594;10.958;2022-07-21T13:21:35;4.10;;;3.72;;
9264;SDS011;4669;49.594;10.958;2022-07-21T13:26:37;3.92;;;3.63;;
9264;SDS011;4669;49.594;10.958;2022-07-21T13:31:41;4.03;;;3.60;;
9264;SDS011;4669;49.594;10.958;2022-07-21T13:36:43;3.47;;;3.17;;
9264;SDS011;4669;49.594;10.958;2022-07-21T13:41:45;5.18;;;3.53;;
9264;SDS011;4669;49.594;10.958;2022-07-21T13:46:48;4.70;;;3.58;;
9264;SDS011;4669;49.594;10.958;2022-07-21T13:51:50;6.25;;;3.80;;
9264;SDS011;4669;49.594;10.958;2022-07-21T13:56:52;5.43;;;4.05;;
9264;SDS011;4669;49.594;10.958;2022-07-21T14:01:57;5.10;;;4.10;;
9264;SDS011;4669;49.594;10.958;2022-07-21T14:06:59;5.38;;;3.78;;
9264;SDS011;4669;49.594;10.958;2022-07-21T14:12:02;4.47;;;3.78;;
9264;SDS011;4669;49.594;10.958;2022-07-21T14:17:05;5.32;;;3.90;;
9264;SDS011;4669;49.594;10.958;2022-07-21T14:22:07;3.55;;;3.25;;
9264;SDS011;4669;49.594;10.958;2022-07-21T14:27:09;4.07;;;3.72;;
9264;SDS011;4669;49.594;10.958;2022-07-21T14:32:12;4.93;;;4.47;;
9264;SDS011;4669;49.594;10.958;2022-07-21T14:37:16;4.80;;;4.15;;
9264;SDS011;4669;49.594;10.958;2022-07-21T14:42:19;4.22;;;3.83;;
9264;SDS011;4669;49.594;10.958;2022-07-21T14:47:25;4.72;;;3.88;;
9264;SDS011;4669;49.594;10.958;2022-07-21T15:06:46;4.68;;;4.28;;
9264;SDS011;4669;49.594;10.958;2022-07-21T15:11:48;4.78;;;4.18;;
9264;SDS011;4669;49.594;10.958;2022-07-21T15:16:51;6.75;;;4.30;;
9264;SDS011;4669;49.594;10.958;2022-07-21T15:21:54;4.45;;;4.00;;
9264;SDS011;4669;49.594;10.958;2022-07-21T15:26:56;4.75;;;4.22;;
9264;SDS011;4669;49.594;10.958;2022-07-21T15:31:58;4.55;;;4.10;;
9264;SDS011;4669;49.594;10.958;2022-07-21T15:37:01;4.85;;;3.95;;
9264;SDS011;4669;49.594;10.958;2022-07-21T15:42:05;6.78;;;4.43;;
9264;SDS011;4669;49.594;10.958;2022-07-21T15:47:09;5.45;;;4.35;;
9264;SDS011;4669;49.594;10.958;2022-07-21T15:52:12;7.07;;;4.25;;
9264;SDS011;4669;49.594;10.958;2022-07-21T15:57:14;5.03;;;4.03;;
9264;SDS011;4669;49.594;10.958;2022-07-21T16:02:16;4.93;;;4.05;;
9264;SDS011;4669;49.594;10.958;2022-07-21T16:07:20;5.95;;;4.10;;
9264;SDS011;4669;49.594;10.958;2022-07-21T16:12:22;4.10;;;3.70;;
9264;SDS011;4669;49.594;10.958;2022-07-21T16:17:24;5.75;;;4.22;;
9264;SDS011;4669;49.594;10.958;2022-07-21T16:22:28;7.13;;;4.20;;
9264;SDS011;4669;49.594;10.958;2022-07-21T16:27:30;7.30;;;4.03;;
9264;SDS011;4669;49.594;10.958;2022-07-21T16:32:32;4.47;;;4.07;;
9264;SDS011;4669;49.594;10.958;2022-07-21T16:37:35;4.90;;;4.00;;
9264;SDS011;4669;49.594;10.958;2022-07-21T16:42:37;4.32;;;3.92;;
9264;SDS011;4669;49.594;10.958;2022-07-21T16:47:39;6.55;;;4.63;;
9264;SDS011;4669;49.594;10.958;2022-07-21T16:52:43;4.22;;;3.92;;
9264;SDS011;4669;49.594;10.958;2022-07-21T16:57:45;5.50;;;3.83;;
9264;SDS011;4669;49.594;10.958;2022-07-21T17:02:47;4.95;;;4.15;;
9264;SDS011;4669;49.594;10.958;2022-07-21T17:07:51;5.03;;;4.53;;
9264;SDS011;4669;49.594;10.958;2022-07-21T17:12:53;5.90;;;4.55;;
9264;SDS011;4669;49.594;10.958;2022-07-21T17:17:55;4.60;;;4.13;;
9264;SDS011;4669;49.594;10.958;2022-07-21T17:22:59;4.15;;;3.83;;
9264;SDS011;4669;49.594;10.958;2022-07-21T17:28:01;4.60;;;4.05;;
9264;SDS011;4669;49.594;10.958;2022-07-21T17:33:04;6.60;;;4.50;;
9264;SDS011;4669;49.594;10.958;2022-07-21T17:38:08;6.82;;;4.90;;
9264;SDS011;4669;49.594;10.958;2022-07-21T17:43:10;4.93;;;4.40;;
9264;SDS011;4669;49.594;10.958;2022-07-21T17:48:12;4.65;;;4.25;;
9264;SDS011;4669;49.594;10.958;2022-07-21T17:53:16;5.75;;;3.90;;
9264;SDS011;4669;49.594;10.958;2022-07-21T17:58:18;5.95;;;4.57;;
9264;SDS011;4669;49.594;10.958;2022-07-21T18:03:37;7.40;;;4.32;;
9264;SDS011;4669;49.594;10.958;2022-07-21T18:08:42;7.45;;;4.30;;
9264;SDS011;4669;49.594;10.958;2022-07-21T18:13:45;6.63;;;4.22;;
9264;SDS011;4669;49.594;10.958;2022-07-21T18:18:48;7.03;;;4.40;;
9264;SDS011;4669;49.594;10.958;2022-07-21T18:23:52;4.78;;;4.40;;
9264;SDS011;4669;49.594;10.958;2022-07-21T18:28:54;4.50;;;4.13;;
9264;SDS011;4669;49.594;10.958;2022-07-21T18:33:57;6.07;;;5.22;;
9264;SDS011;4669;49.594;10.958;2022-07-21T18:39:00;5.93;;;4.30;;
9264;SDS011;4669;49.594;10.958;2022-07-21T18:44:02;8.57;;;4.50;;
9264;SDS011;4669;49.594;10.958;2022-07-21T18:49:05;6.10;;;4.28;;
9264;SDS011;4669;49.594;10.958;2022-07-21T18:54:08;5.10;;;4.47;;
9264;SDS011;4669;49.594;10.958;2022-07-21T18:59:10;5.72;;;4.82;;
9264;SDS011;4669;49.594;10.958;2022-07-21T19:04:12;5.05;;;4.60;;
9264;SDS011;4669;49.594;10.958;2022-07-21T19:09:16;5.32;;;4.82;;
9264;SDS011;4669;49.594;10.958;2022-07-21T19:14:19;5.03;;;4.63;;
9264;SDS011;4669;49.594;10.958;2022-07-21T19:19:21;5.20;;;4.72;;
9264;SDS011;4669;49.594;10.958;2022-07-21T19:24:25;6.35;;;5.13;;
9264;SDS011;4669;49.594;10.958;2022-07-21T19:29:27;5.78;;;4.63;;
9264;SDS011;4669;49.594;10.958;2022-07-21T19:34:29;7.20;;;4.60;;
9264;SDS011;4669;49.594;10.958;2022-07-21T19:39:32;6.20;;;4.50;;
9264;SDS011;4669;49.594;10.958;2022-07-21T19:44:34;6.50;;;5.00;;
9264;SDS011;4669;49.594;10.958;2022-07-21T19:49:36;8.52;;;4.80;;
9264;SDS011;4669;49.594;10.958;2022-07-21T19:54:40;5.95;;;4.85;;
9264;SDS011;4669;49.594;10.958;2022-07-21T19:59:42;7.10;;;6.10;;
9264;SDS011;4669;49.594;10.958;2022-07-21T20:04:45;6.30;;;5.13;;
9264;SDS011;4669;49.594;10.958;2022-07-21T20:09:48;10.07;;;5.43;;
9264;SDS011;4669;49.594;10.958;2022-07-21T20:14:50;12.68;;;5.07;;
9264;SDS011;4669;49.594;10.958;2022-07-21T20:19:52;8.00;;;5.35;;
9264;SDS011;4669;49.594;10.958;2022-07-21T20:24:56;5.80;;;5.30;;
9264;SDS011;4669;49.594;10.958;2022-07-21T20:29:58;7.72;;;5.50;;
9264;SDS011;4669;49.594;10.958;2022-07-21T20:35:02;6.75;;;5.35;;
9264;SDS011;4669;49.594;10.958;2022-07-21T20:40:06;6.35;;;5.13;;
9264;SDS011;4669;49.594;10.958;2022-07-21T20:45:09;6.72;;;5.32;;
9264;SDS011;4669;49.594;10.958;2022-07-21T20:50:12;8.02;;;5.38;;
9264;SDS011;4669;49.594;10.958;2022-07-21T20:55:15;8.95;;;5.38;;
9264;SDS011;4669;49.594;10.958;2022-07-21T21:00:17;11.30;;;5.72;;
9264;SDS011;4669;49.594;10.958;2022-07-21T21:05:21;6.75;;;6.05;;
9264;SDS011;4669;49.594;10.958;2022-07-21T21:10:25;6.35;;;5.75;;
9264;SDS011;4669;49.594;10.958;2022-07-21T21:15:27;5.85;;;4.97;;
9264;SDS011;4669;49.594;10.958;2022-07-21T21:20:30;7.13;;;6.15;;
9264;SDS011;4669;49.594;10.958;2022-07-21T21:25:33;7.57;;;5.47;;
9264;SDS011;4669;49.594;10.958;2022-07-21T21:30:35;8.73;;;4.80;;
9264;SDS011;4669;49.594;10.958;2022-07-21T21:35:37;5.78;;;5.20;;
9264;SDS011;4669;49.594;10.958;2022-07-21T21:40:41;7.95;;;5.50;;
9264;SDS011;4669;49.594;10.958;2022-07-21T21:45:43;9.82;;;5.60;;
9264;SDS011;4669;49.594;10.958;2022-07-21T21:50:45;10.50;;;5.05;;
9264;SDS011;4669;49.594;10.958;2022-07-21T21:55:49;8.00;;;5.80;;
9264;SDS011;4669;49.594;10.958;2022-07-21T22:00:51;11.30;;;5.55;;
9264;SDS011;4669;49.594;10.958;2022-07-21T22:05:54;7.18;;;6.07;;
9264;SDS011;4669;49.594;10.958;2022-07-21T22:10:57;7.65;;;5.28;;
9264;SDS011;4669;49.594;10.958;2022-07-21T22:15:59;6.03;;;5.28;;
9264;SDS011;4669;49.594;10.958;2022-07-21T22:21:02;6.68;;;6.05;;
9264;SDS011;4669;49.594;10.958;2022-07-21T22:26:05;6.03;;;5.45;;
9264;SDS011;4669;49.594;10.958;2022-07-21T22:31:10;6.22;;;5.57;;
9264;SDS011;4669;49.594;10.958;2022-07-21T22:36:12;8.75;;;5.55;;
9264;SDS011;4669;49.594;10.958;2022-07-21T22:41:16;6.60;;;6.00;;
9264;SDS011;4669;49.594;10.958;2022-07-21T22:46:18;7.10;;;5.60;;
9264;SDS011;4669;49.594;10.958;2022-07-21T22:51:20;6.55;;;6.05;;
9264;SDS011;4669;49.594;10.958;2022-07-21T22:56:24;6.35;;;5.75;;
9264;SDS011;4669;49.594;10.958;2022-07-21T23:01:26;7.28;;;5.82;;
9264;SDS011;4669;49.594;10.958;2022-07-21T23:06:28;6.93;;;6.22;;
9264;SDS011;4669;49.594;10.958;2022-07-21T23:11:32;6.20;;;5.60;;
9264;SDS011;4669;49.594;10.958;2022-07-21T23:16:34;8.15;;;5.75;;
9264;SDS011;4669;49.594;10.958;2022-07-21T23:21:36;9.45;;;6.07;;
9264;SDS011;4669;49.594;10.958;2022-07-21T23:26:40;9.00;;;5.80;;
9264;SDS011;4669;49.594;10.958;2022-07-21T23:31:42;7.65;;;5.72;;
9264;SDS011;4669;49.594;10.958;2022-07-21T23:36:44;7.15;;;6.45;;
9264;SDS011;4669;49.594;10.958;2022-07-21T23:41:48;5.68;;;5.10;;
9264;SDS011;4669;49.594;10.958;2022-07-21T23:46:50;9.60;;;6.80;;
9264;SDS011;4669;49.594;10.958;2022-07-21T23:51:52;7.00;;;6.30;;
9264;SDS011;4669;49.594;10.958;2022-07-21T23:56:55;7.05;;;6.25;;
